createdAt,value
2022-08-03T00:02:19.753Z,97639.28
2022-08-03T00:04:48.096Z,97637.06
2022-08-03T00:07:16.593Z,97642.28
2022-08-03T00:09:46.359Z,97642.28
2022-08-03T00:12:14.919Z,97644.03
2022-08-03T00:14:43.659Z,97638.50
2022-08-03T00:17:12.342Z,97643.81
2022-08-03T00:19:40.557Z,97638.13
2022-08-03T00:22:08.895Z,97637.28
2022-08-03T00:24:37.372Z,97629.19
2022-08-03T00:27:07.048Z,97640.94
2022-08-03T00:29:57.436Z,97640.69
2022-08-03T00:32:24.067Z,97644.34
2022-08-03T00:34:57.738Z,97635.97
2022-08-03T00:37:41.697Z,97641.75
2022-08-03T00:40:12.779Z,97641.09
2022-08-03T00:42:53.831Z,97642.19
2022-08-03T00:45:24.063Z,97651.84
2022-08-03T00:47:52.504Z,97647.66
2022-08-03T00:50:23.044Z,97651.50
2022-08-03T00:52:51.952Z,97650.16
2022-08-03T00:55:22.865Z,97649.44
2022-08-03T00:57:52.969Z,97646.16
2022-08-03T01:00:25.165Z,97648.78
2022-08-03T01:02:54.330Z,97641.66
2022-08-03T01:05:23.164Z,97641.53
2022-08-03T01:08:03.526Z,97648.63
2022-08-03T01:10:39.609Z,97649.66
2022-08-03T01:14:03.525Z,97653.31
2022-08-03T01:16:19.135Z,97653.97
2022-08-03T01:18:54.284Z,97659.78
2022-08-03T01:21:26.393Z,97654.94
2022-08-03T01:24:08.511Z,97646.34
2022-08-03T01:26:57.195Z,97652.72
2022-08-03T01:29:56.737Z,97650.44
2022-08-03T01:32:58.802Z,97647.03
2022-08-03T01:35:21.862Z,97648.31
2022-08-03T01:37:54.363Z,97642.75
2022-08-03T01:40:23.865Z,97639.78
2022-08-03T01:42:53.197Z,97640.34
2022-08-03T01:45:24.088Z,97640.28
2022-08-03T01:47:53.128Z,97635.53
2022-08-03T01:50:25.522Z,97641.91
2022-08-03T01:52:54.534Z,97649.19
2022-08-03T01:55:24.142Z,97643.91
2022-08-03T01:58:05.316Z,97642.63
2022-08-03T02:00:37.515Z,97635.81
2022-08-03T02:03:07.447Z,97636.13
2022-08-03T02:05:36.520Z,97632.63
2022-08-03T02:08:06.652Z,97635.22
2022-08-03T02:10:37.549Z,97631.72
2022-08-03T02:13:09.057Z,97627.81
2022-08-03T02:15:39.850Z,97628.13
2022-08-03T02:18:10.338Z,97626.63
2022-08-03T02:20:39.680Z,97623.97
2022-08-03T02:23:08.619Z,97630.28
2022-08-03T02:25:43.230Z,97628.72
2022-08-03T02:28:13.047Z,97624.69
2022-08-03T02:30:44.525Z,97638.66
2022-08-03T02:33:19.742Z,97626.53
2022-08-03T02:35:48.870Z,97626.25
2022-08-03T02:38:21.777Z,97621.13
2022-08-03T02:40:51.553Z,97618.22
2022-08-03T02:43:21.953Z,97618.28
2022-08-03T02:45:52.878Z,97620.22
2022-08-03T02:48:23.833Z,97623.97
2022-08-03T02:50:53.209Z,97620.94
2022-08-03T02:53:22.836Z,97613.63
2022-08-03T02:55:51.837Z,97618.22
2022-08-03T02:58:22.362Z,97617.16
2022-08-03T03:00:52.869Z,97613.59
2022-08-03T03:03:22.599Z,97615.75
2022-08-03T03:05:57.356Z,97619.75
2022-08-03T03:08:28.245Z,97623.50
2022-08-03T03:10:59.179Z,97624.13
2022-08-03T03:13:28.748Z,97622.44
2022-08-03T03:16:01.573Z,97628.22
2022-08-03T03:18:30.405Z,97628.78
2022-08-03T03:20:59.502Z,97622.56
2022-08-03T03:23:28.461Z,97624.13
2022-08-03T03:25:58.590Z,97624.47
2022-08-03T03:28:27.019Z,97615.81
2022-08-03T03:30:55.330Z,97621.34
2022-08-03T03:33:25.889Z,97621.91
2022-08-03T03:35:56.534Z,97623.72
2022-08-03T03:38:24.887Z,97621.00
2022-08-03T03:40:53.194Z,97617.91
2022-08-03T03:43:21.503Z,97624.59
2022-08-03T03:45:50.025Z,97614.75
2022-08-03T03:48:18.710Z,97626.44
2022-08-03T03:50:48.601Z,97619.72
2022-08-03T03:53:16.772Z,97622.25
2022-08-03T03:55:57.769Z,97625.22
2022-08-03T03:58:32.178Z,97620.56
2022-08-03T04:01:00.766Z,97626.63
2022-08-03T04:03:29.348Z,97629.53
2022-08-03T04:06:16.571Z,97639.34
2022-08-03T04:09:02.257Z,97637.78
2022-08-03T04:11:33.873Z,97644.44
2022-08-03T04:14:06.204Z,97649.72
2022-08-03T04:16:38.800Z,97649.41
2022-08-03T04:19:11.852Z,97651.88
2022-08-03T04:21:42.829Z,97646.47
2022-08-03T04:24:12.037Z,97651.34
2022-08-03T04:26:41.859Z,97651.06
2022-08-03T04:29:12.015Z,97645.78
2022-08-03T04:31:41.171Z,97649.16
2022-08-03T04:34:09.634Z,97659.03
2022-08-03T04:36:41.531Z,97664.41
2022-08-03T04:39:12.183Z,97664.94
2022-08-03T04:42:04.384Z,97665.00
2022-08-03T04:44:33.121Z,97674.00
2022-08-03T04:47:01.817Z,97673.59
2022-08-03T04:49:30.692Z,97677.44
2022-08-03T04:52:00.539Z,97677.50
2022-08-03T04:54:28.825Z,97675.28
2022-08-03T04:56:57.107Z,97672.09
2022-08-03T04:59:25.465Z,97674.50
2022-08-03T05:01:53.664Z,97680.91
2022-08-03T05:04:21.923Z,97685.44
2022-08-03T05:06:54.864Z,97682.31
2022-08-03T05:09:49.986Z,97684.78
2022-08-03T05:12:13.047Z,97684.78
2022-08-03T05:14:41.353Z,97682.19
2022-08-03T05:17:09.788Z,97672.31
2022-08-03T05:19:38.009Z,97683.47
2022-08-03T05:22:06.182Z,97687.06
2022-08-03T05:24:35.781Z,97683.00
2022-08-03T05:27:03.974Z,97686.31
2022-08-03T05:29:32.191Z,97682.91
2022-08-03T05:32:06.240Z,97682.34
2022-08-03T05:34:36.407Z,97688.38
2022-08-03T05:37:04.629Z,97685.56
2022-08-03T05:39:32.831Z,97683.28
2022-08-03T05:42:02.649Z,97683.53
2022-08-03T05:44:31.787Z,97695.25
2022-08-03T05:47:00.908Z,97680.63
2022-08-03T05:49:29.340Z,97691.31
2022-08-03T05:51:59.988Z,97688.41
2022-08-03T05:54:56.452Z,97689.13
2022-08-03T05:57:27.582Z,97684.25
2022-08-03T05:59:58.340Z,97687.47
2022-08-03T06:02:27.198Z,97688.25
2022-08-03T06:04:55.460Z,97689.44
2022-08-03T06:07:23.971Z,97688.22
2022-08-03T06:10:33.940Z,97692.44
2022-08-03T06:12:42.260Z,97695.41
2022-08-03T06:15:11.796Z,97697.38
2022-08-03T06:17:47.367Z,97698.81
2022-08-03T06:20:16.907Z,97696.94
2022-08-03T06:22:50.973Z,97692.16
2022-08-03T06:25:28.978Z,97696.06
2022-08-03T06:27:59.513Z,97693.06
2022-08-03T06:30:27.859Z,97695.81
2022-08-03T06:32:56.027Z,97699.63
2022-08-03T06:35:24.612Z,97703.31
2022-08-03T06:37:53.048Z,97702.88
2022-08-03T06:40:28.587Z,97695.53
2022-08-03T06:42:59.028Z,97692.97
2022-08-03T06:45:31.847Z,97699.38
2022-08-03T06:48:05.395Z,97700.09
2022-08-03T06:50:33.896Z,97704.34
2022-08-03T06:53:02.391Z,97698.72
2022-08-03T06:55:31.063Z,97695.09
2022-08-03T06:58:03.618Z,97696.53
2022-08-03T07:00:32.262Z,97702.91
2022-08-03T07:03:00.460Z,97709.25
2022-08-03T07:05:28.931Z,97712.50
2022-08-03T07:07:59.286Z,97715.66
2022-08-03T07:10:27.750Z,97715.34
2022-08-03T07:12:56.999Z,97710.69
2022-08-03T07:15:53.970Z,97719.91
2022-08-03T07:18:15.269Z,97712.47
2022-08-03T07:20:44.901Z,97715.78
2022-08-03T07:23:19.311Z,97707.53
2022-08-03T07:25:47.606Z,97714.69
2022-08-03T07:28:15.905Z,97709.38
2022-08-03T07:30:45.476Z,97708.28
2022-08-03T07:33:13.784Z,97717.53
2022-08-03T07:35:42.026Z,97716.03
2022-08-03T07:38:10.201Z,97711.72
2022-08-03T07:40:42.029Z,97709.28
2022-08-03T07:43:12.767Z,97711.53
2022-08-03T07:45:40.949Z,97709.03
2022-08-03T07:48:12.519Z,97712.78
2022-08-03T07:50:41.486Z,97715.28
2022-08-03T07:53:09.692Z,97708.78
2022-08-03T07:55:37.851Z,97709.97
2022-08-03T07:58:07.727Z,97710.22
2022-08-03T08:00:36.070Z,97706.13
2022-08-03T08:03:04.903Z,97706.38
2022-08-03T08:05:34.630Z,97705.31
2022-08-03T08:08:03.451Z,97704.72
2022-08-03T08:10:32.753Z,97704.50
2022-08-03T08:13:01.791Z,97707.88
2022-08-03T08:15:30.440Z,97708.38
2022-08-03T08:17:59.958Z,97705.97
2022-08-03T08:20:31.279Z,97708.72
2022-08-03T08:23:02.822Z,97706.53
2022-08-03T08:25:32.694Z,97708.84
2022-08-03T08:28:29.830Z,97703.53
2022-08-03T08:30:52.110Z,97709.66
2022-08-03T08:33:23.317Z,97703.94
2022-08-03T08:35:54.216Z,97704.34
2022-08-03T08:38:24.258Z,97711.22
2022-08-03T08:40:52.554Z,97705.66
2022-08-03T08:43:20.837Z,97704.91
2022-08-03T08:45:51.146Z,97705.31
2022-08-03T08:48:22.498Z,97716.78
2022-08-03T08:50:53.555Z,97702.84
2022-08-03T08:53:27.170Z,97704.88
2022-08-03T08:56:00.074Z,97698.91
2022-08-03T08:58:31.417Z,97706.84
2022-08-03T09:01:00.171Z,97699.69
2022-08-03T09:03:29.704Z,97695.63
2022-08-03T09:06:00.563Z,97698.59
2022-08-03T09:08:31.102Z,97698.63
2022-08-03T09:10:59.464Z,97705.88
2022-08-03T09:13:29.179Z,97698.81
2022-08-03T09:16:16.267Z,97702.06
2022-08-03T09:18:45.722Z,97698.09
2022-08-03T09:21:34.849Z,97694.38
2022-08-03T09:24:16.498Z,97694.34
2022-08-03T09:26:54.216Z,97693.91
2022-08-03T09:29:23.435Z,97683.94
2022-08-03T09:32:01.651Z,97690.44
2022-08-03T09:34:30.020Z,97685.97
2022-08-03T09:36:59.011Z,97680.13
2022-08-03T09:39:41.201Z,97689.88
2022-08-03T09:42:11.497Z,97682.28
2022-08-03T09:44:44.699Z,97684.22
2022-08-03T09:47:14.590Z,97680.03
2022-08-03T09:49:44.729Z,97673.06
2022-08-03T09:52:32.331Z,97674.59
2022-08-03T09:56:30.813Z,97677.06
2022-08-03T09:58:06.520Z,97665.50
2022-08-03T10:00:55.104Z,97662.41
2022-08-03T10:03:24.266Z,97654.25
2022-08-03T10:05:59.394Z,97656.28
2022-08-03T10:08:28.159Z,97657.53
2022-08-03T10:10:58.754Z,97655.06
2022-08-03T10:13:27.030Z,97657.63
2022-08-03T10:16:23.182Z,97640.69
2022-08-03T10:18:43.440Z,97642.34
2022-08-03T10:21:14.539Z,97647.41
2022-08-03T10:23:43.115Z,97645.28
2022-08-03T10:26:15.071Z,97642.03
2022-08-03T10:28:50.253Z,97644.78
2022-08-03T10:31:19.820Z,97640.81
2022-08-03T10:33:53.214Z,97632.63
2022-08-03T10:36:25.130Z,97634.13
2022-08-03T10:38:54.020Z,97629.09
2022-08-03T10:41:25.990Z,97635.00
2022-08-03T10:43:58.521Z,97635.31
2022-08-03T10:46:27.800Z,97631.97
2022-08-03T10:48:56.822Z,97628.97
2022-08-03T10:51:25.559Z,97624.50
2022-08-03T10:53:55.370Z,97624.50
2022-08-03T10:56:59.537Z,97619.16
2022-08-03T11:00:00.522Z,97608.38
2022-08-03T11:03:03.725Z,97622.22
2022-08-03T11:05:34.187Z,97616.91
2022-08-03T11:08:37.181Z,97612.78
2022-08-03T11:11:28.586Z,97615.97
2022-08-03T11:14:04.631Z,97613.91
2022-08-03T11:16:36.200Z,97613.13
2022-08-03T11:19:06.037Z,97613.00
2022-08-03T11:22:07.338Z,97618.56
2022-08-03T11:25:53.645Z,97615.19
2022-08-03T11:28:28.509Z,97602.69
2022-08-03T11:30:58.244Z,97598.81
2022-08-03T11:33:35.516Z,97603.09
2022-08-03T11:36:03.867Z,97605.09
2022-08-03T11:38:32.035Z,97598.19
2022-08-03T11:41:02.725Z,97600.44
2022-08-03T11:43:46.971Z,97594.34
2022-08-03T11:46:28.476Z,97587.06
2022-08-03T11:49:10.283Z,97587.56
2022-08-03T11:51:40.496Z,97595.03
2022-08-03T11:54:09.237Z,97591.16
2022-08-03T11:56:47.692Z,97579.34
2022-08-03T11:59:21.780Z,97566.34
2022-08-03T12:01:52.148Z,97572.44
2022-08-03T12:04:20.440Z,97575.81
2022-08-03T12:07:01.181Z,97574.78
2022-08-03T12:09:29.374Z,97571.31
2022-08-03T12:12:00.945Z,97568.41
2022-08-03T12:14:49.276Z,97568.75
2022-08-03T12:17:20.362Z,97571.78
2022-08-03T12:19:48.753Z,97554.19
2022-08-03T12:22:17.917Z,97555.69
2022-08-03T12:24:47.465Z,97553.78
2022-08-03T12:27:24.575Z,97552.53
2022-08-03T12:29:57.215Z,97553.94
2022-08-03T12:32:29.167Z,97554.13
2022-08-03T12:35:01.031Z,97558.44
2022-08-03T12:37:30.302Z,97548.59
2022-08-03T12:40:07.703Z,97547.03
2022-08-03T12:42:40.355Z,97543.56
2022-08-03T12:45:24.477Z,97542.16
2022-08-03T12:47:58.222Z,97536.34
2022-08-03T12:50:28.270Z,97536.19
2022-08-03T12:52:57.191Z,97536.06
2022-08-03T12:55:27.700Z,97534.44
2022-08-03T12:57:55.913Z,97529.03
2022-08-03T13:00:29.525Z,97525.50
2022-08-03T13:03:38.937Z,97527.66
2022-08-03T13:05:54.373Z,97519.81
2022-08-03T13:08:23.952Z,97523.34
2022-08-03T13:10:52.691Z,97518.22
2022-08-03T13:13:39.244Z,97520.84
2022-08-03T13:16:07.496Z,97514.22
2022-08-03T13:18:37.102Z,97509.25
2022-08-03T13:21:06.313Z,97510.25
2022-08-03T13:23:34.483Z,97510.97
2022-08-03T13:26:02.650Z,97512.25
2022-08-03T13:28:30.899Z,97498.94
2022-08-03T13:30:59.127Z,97493.03
2022-08-03T13:33:28.347Z,97494.09
2022-08-03T13:35:58.131Z,97495.22
2022-08-03T13:38:27.237Z,97491.19
2022-08-03T13:40:56.820Z,97489.53
2022-08-03T13:43:25.370Z,97493.59
2022-08-03T13:45:57.736Z,97493.56
2022-08-03T13:48:36.886Z,97486.34
2022-08-03T13:51:22.255Z,97493.50
2022-08-03T13:53:52.299Z,97484.97
2022-08-03T13:56:20.777Z,97469.19
2022-08-03T13:58:49.090Z,97483.00
2022-08-03T14:01:18.570Z,97480.22
2022-08-03T14:03:54.179Z,97478.94
2022-08-03T14:06:24.099Z,97470.75
2022-08-03T14:08:52.732Z,97457.88
2022-08-03T14:11:21.027Z,97457.41
2022-08-03T14:13:49.210Z,97465.53
2022-08-03T14:16:17.423Z,97457.03
2022-08-03T14:18:45.944Z,97463.22
2022-08-03T14:21:14.553Z,97461.41
2022-08-03T14:23:44.132Z,97456.81
2022-08-03T14:26:14.597Z,97462.03
2022-08-03T14:28:42.946Z,97459.38
2022-08-03T14:31:15.486Z,97459.09
2022-08-03T14:33:59.522Z,97460.31
2022-08-03T14:36:27.779Z,97451.28
2022-08-03T14:39:01.253Z,97460.13
2022-08-03T14:41:29.781Z,97454.41
2022-08-03T14:44:01.426Z,97456.97
2022-08-03T14:46:31.291Z,97459.66
2022-08-03T14:50:10.423Z,97456.19
2022-08-03T14:51:51.437Z,97447.72
2022-08-03T14:54:23.729Z,97446.69
2022-08-03T14:56:52.039Z,97439.63
2022-08-03T14:59:20.314Z,97440.94
2022-08-03T15:02:05.976Z,97445.28
2022-08-03T15:04:35.893Z,97435.38
2022-08-03T15:07:04.369Z,97440.50
2022-08-03T15:09:34.025Z,97431.78
2022-08-03T15:12:02.241Z,97430.06
2022-08-03T15:14:33.190Z,97442.16
2022-08-03T15:17:03.050Z,97436.97
2022-08-03T15:20:03.517Z,97434.69
2022-08-03T15:22:20.826Z,97436.97
2022-08-03T15:24:56.271Z,97435.44
2022-08-03T15:27:24.709Z,97428.59
2022-08-03T15:30:06.671Z,97436.09
2022-08-03T15:32:38.437Z,97431.16
2022-08-03T15:35:07.364Z,97434.56
2022-08-03T15:37:36.630Z,97431.59
2022-08-03T15:40:07.358Z,97428.72
2022-08-03T15:42:35.701Z,97424.34
2022-08-03T15:45:03.924Z,97431.31
2022-08-03T15:47:32.154Z,97428.22
2022-08-03T15:50:00.362Z,97423.97
2022-08-03T15:52:28.598Z,97417.72
2022-08-03T15:54:56.848Z,97420.47
2022-08-03T15:57:26.591Z,97414.88
2022-08-03T15:59:54.820Z,97413.50
2022-08-03T16:02:23.004Z,97412.66
2022-08-03T16:04:52.298Z,97418.06
2022-08-03T16:07:41.194Z,97412.31
2022-08-03T16:10:30.658Z,97411.59
2022-08-03T16:13:00.639Z,97410.84
2022-08-03T16:15:29.181Z,97397.06
2022-08-03T16:17:57.408Z,97403.84
2022-08-03T16:20:31.352Z,97401.81
2022-08-03T16:23:05.580Z,97405.44
2022-08-03T16:25:40.098Z,97411.78
2022-08-03T16:28:14.434Z,97415.84
2022-08-03T16:30:45.634Z,97401.53
2022-08-03T16:33:17.178Z,97399.50
2022-08-03T16:35:46.894Z,97403.72
2022-08-03T16:38:18.758Z,97399.44
2022-08-03T16:40:51.675Z,97402.22
2022-08-03T16:43:22.571Z,97403.97
2022-08-03T16:45:50.971Z,97401.91
2022-08-03T16:48:19.739Z,97406.25
2022-08-03T16:50:48.711Z,97408.06
2022-08-03T16:53:18.641Z,97398.47
2022-08-03T16:56:02.982Z,97404.75
2022-08-03T16:58:42.075Z,97403.66
2022-08-03T17:01:21.500Z,97406.69
2022-08-03T17:04:01.622Z,97403.44
2022-08-03T17:06:34.132Z,97406.53
2022-08-03T17:09:09.107Z,97401.53
2022-08-03T17:11:43.086Z,97409.41
2022-08-03T17:14:14.816Z,97400.34
2022-08-03T17:16:52.197Z,97405.22
2022-08-03T17:19:23.699Z,97409.53
2022-08-03T17:21:58.442Z,97415.63
2022-08-03T17:24:30.166Z,97426.53
2022-08-03T17:27:02.112Z,97420.94
2022-08-03T17:29:35.017Z,97421.16
2022-08-03T17:32:09.695Z,97422.09
2022-08-03T17:34:39.565Z,97427.91
2022-08-03T17:37:27.321Z,97434.00
2022-08-03T17:39:59.105Z,97434.16
2022-08-03T17:42:38.813Z,97434.59
2022-08-03T17:45:15.947Z,97438.16
2022-08-03T17:47:44.382Z,97439.50
2022-08-03T17:50:25.254Z,97441.06
2022-08-03T17:53:07.414Z,97437.91
2022-08-03T17:55:56.146Z,97447.00
2022-08-03T17:58:41.229Z,97446.69
2022-08-03T18:02:03.647Z,97449.72
2022-08-03T18:04:30.109Z,97453.25
2022-08-03T18:07:11.575Z,97457.41
2022-08-03T18:10:03.277Z,97449.75
2022-08-03T18:12:47.792Z,97457.00
2022-08-03T18:15:25.482Z,97453.47
2022-08-03T18:17:58.475Z,97461.09
2022-08-03T18:20:41.143Z,97454.22
2022-08-03T18:23:11.426Z,97459.75
2022-08-03T18:25:58.178Z,97466.34
2022-08-03T18:28:30.212Z,97462.69
2022-08-03T18:30:59.265Z,97469.31
2022-08-03T18:34:19.463Z,97468.72
2022-08-03T18:36:21.971Z,97479.28
2022-08-03T18:39:00.290Z,97482.53
2022-08-03T18:41:33.334Z,97485.31
2022-08-03T18:44:07.038Z,97487.13
2022-08-03T18:46:49.222Z,97491.50
2022-08-03T18:49:33.955Z,97493.44
2022-08-03T18:52:12.074Z,97488.84
2022-08-03T18:55:02.368Z,97492.34
2022-08-03T18:57:41.063Z,97499.88
2022-08-03T19:00:14.250Z,97500.41
2022-08-03T19:02:48.688Z,97507.66
2022-08-03T19:08:14.875Z,97504.78
2022-08-03T19:10:57.812Z,97503.22
2022-08-03T19:13:37.398Z,97510.47
2022-08-03T19:16:10.814Z,97520.78
2022-08-03T19:18:42.756Z,97519.66
2022-08-03T19:21:15.854Z,97519.31
2022-08-03T19:23:47.006Z,97524.56
2022-08-03T19:26:30.371Z,97523.47
2022-08-03T19:29:00.226Z,97523.31
2022-08-03T19:31:31.069Z,97519.09
2022-08-03T19:34:03.933Z,97518.66
2022-08-03T19:36:40.377Z,97521.91
2022-08-03T19:39:12.817Z,97520.50
2022-08-03T19:41:43.097Z,97530.06
2022-08-03T19:44:25.467Z,97531.09
2022-08-03T19:46:55.646Z,97526.50
2022-08-03T19:49:57.793Z,97526.50
2022-08-03T19:52:20.841Z,97535.72
2022-08-03T19:54:54.634Z,97532.56
2022-08-03T19:57:25.464Z,97537.47
2022-08-03T19:59:56.836Z,97547.19
2022-08-03T20:02:26.265Z,97532.50
2022-08-03T20:04:57.147Z,97534.56
2022-08-03T20:07:27.858Z,97534.44
2022-08-03T20:09:57.057Z,97539.75
2022-08-03T20:12:28.886Z,97547.13
2022-08-03T20:14:59.366Z,97540.47
2022-08-03T20:17:56.971Z,97557.69
2022-08-03T20:20:23.487Z,97556.59
2022-08-03T20:22:57.579Z,97563.84
2022-08-03T20:25:38.349Z,97559.72
2022-08-03T20:28:13.429Z,97563.66
2022-08-03T20:30:44.266Z,97560.72
2022-08-03T20:33:18.536Z,97558.09
2022-08-03T20:35:49.648Z,97554.84
2022-08-03T20:38:20.532Z,97562.06
2022-08-03T20:40:56.357Z,97559.59
2022-08-03T20:43:27.599Z,97564.81
2022-08-03T20:45:59.762Z,97562.22
2022-08-03T20:48:48.544Z,97559.09
2022-08-03T20:51:20.121Z,97562.94
2022-08-03T20:54:28.756Z,97554.97
2022-08-03T20:56:56.704Z,97559.94
2022-08-03T20:59:28.889Z,97561.06
2022-08-03T21:01:58.810Z,97569.06
2022-08-03T21:04:27.257Z,97563.75
2022-08-03T21:07:00.748Z,97565.06
2022-08-03T21:09:39.937Z,97569.19
2022-08-03T21:12:15.281Z,97567.69
2022-08-03T21:13:01.260Z,97508.25
2022-08-03T21:14:52.402Z,97566.31
2022-08-03T21:17:38.350Z,97570.97
2022-08-03T21:20:09.545Z,97572.31
2022-08-03T21:22:39.351Z,97568.13
2022-08-03T21:25:10.322Z,97572.16
2022-08-03T21:27:39.062Z,97574.16
2022-08-03T21:30:10.354Z,97575.09
2022-08-03T21:32:40.440Z,97575.41
2022-08-03T21:35:10.789Z,97580.75
2022-08-03T21:37:40.795Z,97578.53
2022-08-03T21:40:13.576Z,97579.38
2022-08-03T21:42:44.156Z,97576.91
2022-08-03T21:45:17.396Z,97580.56
2022-08-03T21:47:47.169Z,97588.63
2022-08-03T21:50:16.211Z,97584.38
2022-08-03T21:52:46.437Z,97584.16
2022-08-03T21:55:18.666Z,97587.75
2022-08-03T21:57:53.343Z,97581.91
2022-08-03T22:00:23.276Z,97589.44
2022-08-03T22:02:55.264Z,97579.38
2022-08-03T22:05:42.591Z,97579.91
2022-08-03T22:08:13.371Z,97579.34
2022-08-03T22:10:44.999Z,97583.41
2022-08-03T22:13:13.690Z,97587.66
2022-08-03T22:15:42.166Z,97584.94
2022-08-03T22:18:11.115Z,97587.53
2022-08-03T22:20:39.398Z,97580.28
2022-08-03T22:23:08.250Z,97592.16
2022-08-03T22:25:37.986Z,97596.00
2022-08-03T22:28:10.251Z,97590.53
2022-08-03T22:30:39.481Z,97597.31
2022-08-03T22:33:10.949Z,97595.38
2022-08-03T22:35:47.376Z,97592.06
2022-08-03T22:38:17.744Z,97593.97
2022-08-03T22:40:46.250Z,97591.06
2022-08-03T22:43:16.542Z,97593.03
2022-08-03T22:46:09.292Z,97596.56
2022-08-03T22:48:35.376Z,97595.22
2022-08-03T22:51:09.731Z,97594.78
2022-08-03T22:53:38.182Z,97590.69
2022-08-03T22:56:06.431Z,97596.16
2022-08-03T22:58:36.092Z,97596.91
2022-08-03T23:01:08.808Z,97597.22
2022-08-03T23:03:59.277Z,97591.19
2022-08-03T23:06:28.467Z,97591.03
2022-08-03T23:08:56.869Z,97592.00
2022-08-03T23:11:25.400Z,97591.22
2022-08-03T23:13:56.977Z,97587.50
2022-08-03T23:16:28.737Z,97580.97
2022-08-03T23:18:59.310Z,97592.25
2022-08-03T23:22:00.046Z,97592.06
2022-08-03T23:24:26.124Z,97584.72
2022-08-03T23:26:59.193Z,97583.25
2022-08-03T23:29:30.449Z,97596.03
2022-08-03T23:31:59.489Z,97586.66
2022-08-03T23:34:46.721Z,97587.97
2022-08-03T23:37:15.952Z,97591.66
2022-08-03T23:39:46.474Z,97585.97
2022-08-03T23:42:15.902Z,97590.84
2022-08-03T23:44:46.130Z,97581.91
2022-08-03T23:47:14.762Z,97593.00
2022-08-03T23:49:43.060Z,97582.53
2022-08-03T23:52:17.257Z,97583.00
2022-08-03T23:54:54.354Z,97574.94
2022-08-03T23:57:29.751Z,97576.44
